sensor_id;sensor_type;location;lat;lon;timestamp;P1;durP1;ratioP1;P2;durP2;ratioP2
45642;SDS011;31358;46.008;11.144;2023-09-07T00:00:52;5.25;;;2.42;;
45642;SDS011;31358;46.008;11.144;2023-09-07T00:03:18;5.25;;;2.30;;
45642;SDS011;31358;46.008;11.144;2023-09-07T00:05:44;4.05;;;2.33;;
45642;SDS011;31358;46.008;11.144;2023-09-07T00:08:10;3.92;;;1.98;;
45642;SDS011;31358;46.008;11.144;2023-09-07T00:10:35;3.85;;;2.08;;
45642;SDS011;31358;46.008;11.144;2023-09-07T00:13:02;6.40;;;2.50;;
45642;SDS011;31358;46.008;11.144;2023-09-07T00:15:28;3.88;;;2.25;;
45642;SDS011;31358;46.008;11.144;2023-09-07T00:17:55;4.22;;;2.38;;
45642;SDS011;31358;46.008;11.144;2023-09-07T00:20:21;5.50;;;1.83;;
45642;SDS011;31358;46.008;11.144;2023-09-07T00:22:48;5.90;;;2.15;;
45642;SDS011;31358;46.008;11.144;2023-09-07T00:25:14;4.90;;;2.58;;
45642;SDS011;31358;46.008;11.144;2023-09-07T00:27:40;3.92;;;2.25;;
45642;SDS011;31358;46.008;11.144;2023-09-07T00:30:06;5.32;;;1.90;;
45642;SDS011;31358;46.008;11.144;2023-09-07T00:32:35;4.10;;;2.08;;
45642;SDS011;31358;46.008;11.144;2023-09-07T00:35:02;3.97;;;1.73;;
45642;SDS011;31358;46.008;11.144;2023-09-07T00:37:28;5.40;;;2.47;;
45642;SDS011;31358;46.008;11.144;2023-09-07T00:39:54;4.43;;;2.47;;
45642;SDS011;31358;46.008;11.144;2023-09-07T00:42:19;5.20;;;2.45;;
45642;SDS011;31358;46.008;11.144;2023-09-07T00:44:45;3.78;;;2.20;;
45642;SDS011;31358;46.008;11.144;2023-09-07T00:47:13;4.32;;;2.47;;
45642;SDS011;31358;46.008;11.144;2023-09-07T00:49:39;4.53;;;1.95;;
45642;SDS011;31358;46.008;11.144;2023-09-07T00:52:05;3.30;;;1.63;;
45642;SDS011;31358;46.008;11.144;2023-09-07T00:54:32;4.63;;;2.47;;
45642;SDS011;31358;46.008;11.144;2023-09-07T00:56:59;5.30;;;2.33;;
45642;SDS011;31358;46.008;11.144;2023-09-07T00:59:25;5.45;;;2.20;;
45642;SDS011;31358;46.008;11.144;2023-09-07T01:01:51;3.88;;;1.65;;
45642;SDS011;31358;46.008;11.144;2023-09-07T01:04:16;5.07;;;2.00;;
45642;SDS011;31358;46.008;11.144;2023-09-07T01:06:43;3.65;;;2.00;;
45642;SDS011;31358;46.008;11.144;2023-09-07T01:09:16;4.63;;;2.30;;
45642;SDS011;31358;46.008;11.144;2023-09-07T01:11:44;4.32;;;2.30;;
45642;SDS011;31358;46.008;11.144;2023-09-07T01:14:10;4.65;;;2.35;;
45642;SDS011;31358;46.008;11.144;2023-09-07T01:16:35;4.10;;;2.17;;
45642;SDS011;31358;46.008;11.144;2023-09-07T01:19:04;5.72;;;2.42;;
45642;SDS011;31358;46.008;11.144;2023-09-07T01:21:34;4.53;;;2.63;;
45642;SDS011;31358;46.008;11.144;2023-09-07T01:24:02;5.20;;;2.33;;
45642;SDS011;31358;46.008;11.144;2023-09-07T01:26:34;5.80;;;2.22;;
45642;SDS011;31358;46.008;11.144;2023-09-07T01:29:03;4.35;;;2.40;;
45642;SDS011;31358;46.008;11.144;2023-09-07T01:31:30;4.32;;;2.42;;
45642;SDS011;31358;46.008;11.144;2023-09-07T01:33:55;6.32;;;2.50;;
45642;SDS011;31358;46.008;11.144;2023-09-07T01:36:21;7.25;;;2.30;;
45642;SDS011;31358;46.008;11.144;2023-09-07T01:38:47;7.10;;;2.10;;
45642;SDS011;31358;46.008;11.144;2023-09-07T01:41:12;4.60;;;2.20;;
45642;SDS011;31358;46.008;11.144;2023-09-07T01:43:38;4.13;;;1.98;;
45642;SDS011;31358;46.008;11.144;2023-09-07T01:46:03;3.58;;;2.25;;
45642;SDS011;31358;46.008;11.144;2023-09-07T01:48:29;4.63;;;2.55;;
45642;SDS011;31358;46.008;11.144;2023-09-07T01:50:55;4.30;;;2.25;;
45642;SDS011;31358;46.008;11.144;2023-09-07T01:53:20;5.72;;;2.22;;
45642;SDS011;31358;46.008;11.144;2023-09-07T01:55:46;4.00;;;2.20;;
45642;SDS011;31358;46.008;11.144;2023-09-07T01:58:13;5.60;;;2.33;;
45642;SDS011;31358;46.008;11.144;2023-09-07T02:00:39;3.58;;;1.92;;
45642;SDS011;31358;46.008;11.144;2023-09-07T02:03:05;4.07;;;2.28;;
45642;SDS011;31358;46.008;11.144;2023-09-07T02:05:31;4.28;;;2.33;;
45642;SDS011;31358;46.008;11.144;2023-09-07T02:07:57;4.53;;;1.90;;
45642;SDS011;31358;46.008;11.144;2023-09-07T02:10:23;4.00;;;2.20;;
45642;SDS011;31358;46.008;11.144;2023-09-07T02:12:49;4.30;;;2.20;;
45642;SDS011;31358;46.008;11.144;2023-09-07T02:15:15;12.25;;;2.15;;
45642;SDS011;31358;46.008;11.144;2023-09-07T02:17:40;3.85;;;2.10;;
45642;SDS011;31358;46.008;11.144;2023-09-07T02:20:10;7.95;;;2.30;;
45642;SDS011;31358;46.008;11.144;2023-09-07T02:22:37;4.45;;;2.40;;
45642;SDS011;31358;46.008;11.144;2023-09-07T02:25:03;4.80;;;2.30;;
45642;SDS011;31358;46.008;11.144;2023-09-07T02:27:30;8.63;;;2.65;;
45642;SDS011;31358;46.008;11.144;2023-09-07T02:30:00;5.60;;;1.92;;
45642;SDS011;31358;46.008;11.144;2023-09-07T02:32:27;4.35;;;2.20;;
45642;SDS011;31358;46.008;11.144;2023-09-07T02:34:53;5.38;;;2.00;;
45642;SDS011;31358;46.008;11.144;2023-09-07T02:37:18;6.53;;;2.70;;
45642;SDS011;31358;46.008;11.144;2023-09-07T02:39:44;6.53;;;2.53;;
45642;SDS011;31358;46.008;11.144;2023-09-07T02:42:10;3.95;;;2.20;;
45642;SDS011;31358;46.008;11.144;2023-09-07T02:44:35;6.88;;;2.15;;
45642;SDS011;31358;46.008;11.144;2023-09-07T02:47:01;3.83;;;1.90;;
45642;SDS011;31358;46.008;11.144;2023-09-07T02:49:27;3.65;;;2.05;;
45642;SDS011;31358;46.008;11.144;2023-09-07T02:51:52;4.50;;;2.22;;
45642;SDS011;31358;46.008;11.144;2023-09-07T02:54:18;6.43;;;2.40;;
45642;SDS011;31358;46.008;11.144;2023-09-07T02:56:44;4.10;;;2.40;;
45642;SDS011;31358;46.008;11.144;2023-09-07T02:59:10;6.60;;;2.20;;
45642;SDS011;31358;46.008;11.144;2023-09-07T03:01:37;5.85;;;2.38;;
45642;SDS011;31358;46.008;11.144;2023-09-07T03:04:04;6.10;;;2.42;;
45642;SDS011;31358;46.008;11.144;2023-09-07T03:06:31;8.15;;;2.55;;
45642;SDS011;31358;46.008;11.144;2023-09-07T03:08:56;4.97;;;2.45;;
45642;SDS011;31358;46.008;11.144;2023-09-07T03:11:22;5.43;;;2.30;;
45642;SDS011;31358;46.008;11.144;2023-09-07T03:13:48;5.13;;;2.63;;
45642;SDS011;31358;46.008;11.144;2023-09-07T03:16:14;5.28;;;2.20;;
45642;SDS011;31358;46.008;11.144;2023-09-07T03:18:40;4.20;;;1.98;;
45642;SDS011;31358;46.008;11.144;2023-09-07T03:21:05;4.45;;;2.10;;
45642;SDS011;31358;46.008;11.144;2023-09-07T03:23:32;5.38;;;2.13;;
45642;SDS011;31358;46.008;11.144;2023-09-07T03:25:58;3.90;;;2.40;;
45642;SDS011;31358;46.008;11.144;2023-09-07T03:28:24;4.18;;;2.20;;
45642;SDS011;31358;46.008;11.144;2023-09-07T03:30:51;4.32;;;2.58;;
45642;SDS011;31358;46.008;11.144;2023-09-07T03:33:17;5.25;;;2.33;;
45642;SDS011;31358;46.008;11.144;2023-09-07T03:35:43;5.10;;;2.03;;
45642;SDS011;31358;46.008;11.144;2023-09-07T03:38:09;4.63;;;2.38;;
45642;SDS011;31358;46.008;11.144;2023-09-07T03:40:34;4.97;;;2.30;;
45642;SDS011;31358;46.008;11.144;2023-09-07T03:43:00;4.03;;;2.35;;
45642;SDS011;31358;46.008;11.144;2023-09-07T03:45:25;4.20;;;2.45;;
45642;SDS011;31358;46.008;11.144;2023-09-07T03:47:51;3.45;;;1.95;;
45642;SDS011;31358;46.008;11.144;2023-09-07T03:50:17;5.95;;;2.70;;
45642;SDS011;31358;46.008;11.144;2023-09-07T03:52:42;5.57;;;2.63;;
45642;SDS011;31358;46.008;11.144;2023-09-07T03:55:08;3.60;;;1.83;;
45642;SDS011;31358;46.008;11.144;2023-09-07T03:57:34;6.00;;;2.55;;
45642;SDS011;31358;46.008;11.144;2023-09-07T04:00:00;5.00;;;2.25;;
45642;SDS011;31358;46.008;11.144;2023-09-07T04:02:25;6.28;;;3.17;;
45642;SDS011;31358;46.008;11.144;2023-09-07T04:04:52;6.18;;;2.88;;
45642;SDS011;31358;46.008;11.144;2023-09-07T04:07:18;4.28;;;2.08;;
45642;SDS011;31358;46.008;11.144;2023-09-07T04:09:45;4.45;;;2.22;;
45642;SDS011;31358;46.008;11.144;2023-09-07T04:12:11;5.03;;;1.98;;
45642;SDS011;31358;46.008;11.144;2023-09-07T04:14:37;4.15;;;2.33;;
45642;SDS011;31358;46.008;11.144;2023-09-07T04:17:03;4.50;;;2.45;;
45642;SDS011;31358;46.008;11.144;2023-09-07T04:19:29;4.30;;;2.50;;
45642;SDS011;31358;46.008;11.144;2023-09-07T04:21:56;4.85;;;2.15;;
45642;SDS011;31358;46.008;11.144;2023-09-07T04:24:22;5.43;;;2.30;;
45642;SDS011;31358;46.008;11.144;2023-09-07T04:26:48;4.40;;;2.20;;
45642;SDS011;31358;46.008;11.144;2023-09-07T04:29:14;4.75;;;2.20;;
45642;SDS011;31358;46.008;11.144;2023-09-07T04:31:40;7.32;;;2.78;;
45642;SDS011;31358;46.008;11.144;2023-09-07T04:34:06;6.78;;;2.47;;
45642;SDS011;31358;46.008;11.144;2023-09-07T04:36:32;6.88;;;2.88;;
45642;SDS011;31358;46.008;11.144;2023-09-07T04:38:58;3.70;;;1.95;;
45642;SDS011;31358;46.008;11.144;2023-09-07T04:41:24;4.65;;;2.30;;
45642;SDS011;31358;46.008;11.144;2023-09-07T04:43:49;4.32;;;2.03;;
45642;SDS011;31358;46.008;11.144;2023-09-07T04:46:15;6.30;;;2.70;;
45642;SDS011;31358;46.008;11.144;2023-09-07T04:48:42;11.18;;;2.53;;
45642;SDS011;31358;46.008;11.144;2023-09-07T04:51:08;4.65;;;2.30;;
45642;SDS011;31358;46.008;11.144;2023-09-07T04:53:35;4.15;;;2.28;;
45642;SDS011;31358;46.008;11.144;2023-09-07T04:56:02;4.65;;;2.35;;
45642;SDS011;31358;46.008;11.144;2023-09-07T04:58:29;3.58;;;1.88;;
45642;SDS011;31358;46.008;11.144;2023-09-07T05:01:00;4.68;;;2.45;;
45642;SDS011;31358;46.008;11.144;2023-09-07T05:03:27;5.25;;;2.13;;
45642;SDS011;31358;46.008;11.144;2023-09-07T05:05:53;4.28;;;2.33;;
45642;SDS011;31358;46.008;11.144;2023-09-07T05:08:19;4.85;;;2.88;;
45642;SDS011;31358;46.008;11.144;2023-09-07T05:10:45;5.20;;;2.45;;
45642;SDS011;31358;46.008;11.144;2023-09-07T05:13:11;4.15;;;2.63;;
45642;SDS011;31358;46.008;11.144;2023-09-07T05:15:36;6.22;;;2.35;;
45642;SDS011;31358;46.008;11.144;2023-09-07T05:18:02;5.25;;;2.10;;
45642;SDS011;31358;46.008;11.144;2023-09-07T05:20:30;4.03;;;2.42;;
45642;SDS011;31358;46.008;11.144;2023-09-07T05:22:56;3.88;;;2.40;;
45642;SDS011;31358;46.008;11.144;2023-09-07T05:25:21;4.68;;;2.67;;
45642;SDS011;31358;46.008;11.144;2023-09-07T05:27:47;4.00;;;2.45;;
45642;SDS011;31358;46.008;11.144;2023-09-07T05:30:14;5.40;;;2.53;;
45642;SDS011;31358;46.008;11.144;2023-09-07T05:32:39;5.78;;;3.00;;
45642;SDS011;31358;46.008;11.144;2023-09-07T05:35:06;6.13;;;2.83;;
45642;SDS011;31358;46.008;11.144;2023-09-07T05:37:32;13.23;;;3.42;;
45642;SDS011;31358;46.008;11.144;2023-09-07T05:39:58;7.07;;;2.75;;
45642;SDS011;31358;46.008;11.144;2023-09-07T05:42:24;5.88;;;3.45;;
45642;SDS011;31358;46.008;11.144;2023-09-07T05:44:51;4.65;;;2.50;;
45642;SDS011;31358;46.008;11.144;2023-09-07T05:47:16;4.15;;;1.98;;
45642;SDS011;31358;46.008;11.144;2023-09-07T05:49:42;6.03;;;2.80;;
45642;SDS011;31358;46.008;11.144;2023-09-07T05:52:08;4.78;;;2.58;;
45642;SDS011;31358;46.008;11.144;2023-09-07T05:54:34;4.70;;;2.75;;
45642;SDS011;31358;46.008;11.144;2023-09-07T05:56:59;6.10;;;2.45;;
45642;SDS011;31358;46.008;11.144;2023-09-07T05:59:25;4.68;;;2.30;;
45642;SDS011;31358;46.008;11.144;2023-09-07T06:01:51;5.38;;;3.00;;
45642;SDS011;31358;46.008;11.144;2023-09-07T06:04:16;5.85;;;2.78;;
45642;SDS011;31358;46.008;11.144;2023-09-07T06:06:42;5.45;;;2.60;;
45642;SDS011;31358;46.008;11.144;2023-09-07T06:09:08;4.82;;;2.75;;
45642;SDS011;31358;46.008;11.144;2023-09-07T06:11:33;5.85;;;2.70;;
45642;SDS011;31358;46.008;11.144;2023-09-07T06:14:00;5.47;;;3.17;;
45642;SDS011;31358;46.008;11.144;2023-09-07T06:16:25;5.60;;;2.58;;
45642;SDS011;31358;46.008;11.144;2023-09-07T06:18:51;5.15;;;2.83;;
45642;SDS011;31358;46.008;11.144;2023-09-07T06:21:16;7.57;;;3.05;;
45642;SDS011;31358;46.008;11.144;2023-09-07T06:23:42;5.10;;;3.20;;
45642;SDS011;31358;46.008;11.144;2023-09-07T06:26:08;5.68;;;2.95;;
45642;SDS011;31358;46.008;11.144;2023-09-07T06:28:34;5.63;;;3.40;;
45642;SDS011;31358;46.008;11.144;2023-09-07T06:30:59;4.20;;;2.33;;
45642;SDS011;31358;46.008;11.144;2023-09-07T06:33:25;5.50;;;3.15;;
45642;SDS011;31358;46.008;11.144;2023-09-07T06:35:51;8.40;;;3.00;;
45642;SDS011;31358;46.008;11.144;2023-09-07T06:38:16;5.93;;;3.30;;
45642;SDS011;31358;46.008;11.144;2023-09-07T06:40:47;11.38;;;3.20;;
45642;SDS011;31358;46.008;11.144;2023-09-07T06:43:13;7.88;;;3.50;;
45642;SDS011;31358;46.008;11.144;2023-09-07T06:45:39;6.18;;;3.17;;
45642;SDS011;31358;46.008;11.144;2023-09-07T06:48:05;6.13;;;3.10;;
45642;SDS011;31358;46.008;11.144;2023-09-07T06:50:31;5.05;;;2.80;;
45642;SDS011;31358;46.008;11.144;2023-09-07T06:52:56;6.03;;;3.20;;
45642;SDS011;31358;46.008;11.144;2023-09-07T06:55:22;5.05;;;3.08;;
45642;SDS011;31358;46.008;11.144;2023-09-07T06:57:48;6.63;;;3.42;;
45642;SDS011;31358;46.008;11.144;2023-09-07T07:00:14;10.07;;;3.70;;
45642;SDS011;31358;46.008;11.144;2023-09-07T07:02:40;5.68;;;3.00;;
45642;SDS011;31358;46.008;11.144;2023-09-07T07:05:06;5.93;;;3.08;;
45642;SDS011;31358;46.008;11.144;2023-09-07T07:07:32;5.38;;;3.25;;
45642;SDS011;31358;46.008;11.144;2023-09-07T07:09:59;7.85;;;3.60;;
45642;SDS011;31358;46.008;11.144;2023-09-07T07:12:25;5.95;;;3.83;;
45642;SDS011;31358;46.008;11.144;2023-09-07T07:14:51;7.85;;;3.53;;
45642;SDS011;31358;46.008;11.144;2023-09-07T07:17:17;6.18;;;3.10;;
45642;SDS011;31358;46.008;11.144;2023-09-07T07:19:42;6.53;;;3.50;;
45642;SDS011;31358;46.008;11.144;2023-09-07T07:22:08;5.20;;;2.90;;
45642;SDS011;31358;46.008;11.144;2023-09-07T07:24:34;5.38;;;3.08;;
45642;SDS011;31358;46.008;11.144;2023-09-07T07:26:59;6.35;;;3.40;;
45642;SDS011;31358;46.008;11.144;2023-09-07T07:29:25;4.70;;;3.20;;
45642;SDS011;31358;46.008;11.144;2023-09-07T07:31:52;5.85;;;2.70;;
45642;SDS011;31358;46.008;11.144;2023-09-07T07:34:17;6.07;;;3.13;;
45642;SDS011;31358;46.008;11.144;2023-09-07T07:36:43;6.28;;;3.53;;
45642;SDS011;31358;46.008;11.144;2023-09-07T07:39:08;8.57;;;3.70;;
45642;SDS011;31358;46.008;11.144;2023-09-07T07:41:34;7.60;;;3.35;;
45642;SDS011;31358;46.008;11.144;2023-09-07T07:44:01;8.38;;;3.88;;
45642;SDS011;31358;46.008;11.144;2023-09-07T07:46:26;6.25;;;3.80;;
45642;SDS011;31358;46.008;11.144;2023-09-07T07:48:52;8.60;;;4.10;;
45642;SDS011;31358;46.008;11.144;2023-09-07T07:51:18;7.18;;;3.83;;
45642;SDS011;31358;46.008;11.144;2023-09-07T07:53:43;7.22;;;3.92;;
45642;SDS011;31358;46.008;11.144;2023-09-07T07:56:16;7.45;;;4.30;;
45642;SDS011;31358;46.008;11.144;2023-09-07T07:58:42;5.80;;;3.63;;
45642;SDS011;31358;46.008;11.144;2023-09-07T08:01:18;6.60;;;4.05;;
45642;SDS011;31358;46.008;11.144;2023-09-07T08:03:45;6.28;;;4.00;;
45642;SDS011;31358;46.008;11.144;2023-09-07T08:06:11;6.35;;;4.00;;
45642;SDS011;31358;46.008;11.144;2023-09-07T08:08:37;8.77;;;3.60;;
45642;SDS011;31358;46.008;11.144;2023-09-07T08:11:04;7.35;;;4.25;;
45642;SDS011;31358;46.008;11.144;2023-09-07T08:13:33;6.75;;;3.58;;
45642;SDS011;31358;46.008;11.144;2023-09-07T08:16:00;6.28;;;3.78;;
45642;SDS011;31358;46.008;11.144;2023-09-07T08:18:29;6.55;;;3.88;;
45642;SDS011;31358;46.008;11.144;2023-09-07T08:20:57;7.25;;;4.20;;
45642;SDS011;31358;46.008;11.144;2023-09-07T08:23:23;7.20;;;4.38;;
45642;SDS011;31358;46.008;11.144;2023-09-07T08:25:50;7.80;;;4.18;;
45642;SDS011;31358;46.008;11.144;2023-09-07T08:28:17;7.57;;;3.90;;
45642;SDS011;31358;46.008;11.144;2023-09-07T08:30:43;6.15;;;4.20;;
45642;SDS011;31358;46.008;11.144;2023-09-07T08:33:09;7.88;;;4.00;;
45642;SDS011;31358;46.008;11.144;2023-09-07T08:35:35;6.82;;;3.80;;
45642;SDS011;31358;46.008;11.144;2023-09-07T08:38:03;5.93;;;4.30;;
45642;SDS011;31358;46.008;11.144;2023-09-07T08:40:33;7.60;;;4.22;;
45642;SDS011;31358;46.008;11.144;2023-09-07T08:43:03;8.25;;;4.68;;
45642;SDS011;31358;46.008;11.144;2023-09-07T08:45:29;6.07;;;3.97;;
45642;SDS011;31358;46.008;11.144;2023-09-07T08:47:58;10.15;;;4.63;;
45642;SDS011;31358;46.008;11.144;2023-09-07T08:50:24;6.38;;;4.18;;
45642;SDS011;31358;46.008;11.144;2023-09-07T08:52:51;7.57;;;4.35;;
45642;SDS011;31358;46.008;11.144;2023-09-07T08:55:18;5.93;;;3.80;;
45642;SDS011;31358;46.008;11.144;2023-09-07T08:57:44;6.32;;;4.07;;
45642;SDS011;31358;46.008;11.144;2023-09-07T09:00:10;6.28;;;3.47;;
45642;SDS011;31358;46.008;11.144;2023-09-07T09:02:41;7.07;;;3.97;;
45642;SDS011;31358;46.008;11.144;2023-09-07T09:05:10;5.88;;;3.83;;
45642;SDS011;31358;46.008;11.144;2023-09-07T09:07:39;12.52;;;4.85;;
45642;SDS011;31358;46.008;11.144;2023-09-07T09:10:05;7.78;;;4.35;;
45642;SDS011;31358;46.008;11.144;2023-09-07T09:12:32;10.77;;;5.05;;
45642;SDS011;31358;46.008;11.144;2023-09-07T09:14:58;9.18;;;4.88;;
45642;SDS011;31358;46.008;11.144;2023-09-07T09:17:26;7.32;;;4.40;;
45642;SDS011;31358;46.008;11.144;2023-09-07T09:19:52;8.40;;;4.70;;
45642;SDS011;31358;46.008;11.144;2023-09-07T09:22:17;7.22;;;4.65;;
45642;SDS011;31358;46.008;11.144;2023-09-07T09:24:47;8.35;;;4.47;;
45642;SDS011;31358;46.008;11.144;2023-09-07T09:27:13;6.68;;;4.35;;
45642;SDS011;31358;46.008;11.144;2023-09-07T09:29:39;8.50;;;5.28;;
45642;SDS011;31358;46.008;11.144;2023-09-07T09:32:06;9.23;;;4.85;;
45642;SDS011;31358;46.008;11.144;2023-09-07T09:34:33;8.30;;;5.70;;
45642;SDS011;31358;46.008;11.144;2023-09-07T09:37:00;6.38;;;4.40;;
45642;SDS011;31358;46.008;11.144;2023-09-07T09:39:27;7.57;;;4.55;;
45642;SDS011;31358;46.008;11.144;2023-09-07T09:41:52;10.63;;;5.07;;
45642;SDS011;31358;46.008;11.144;2023-09-07T09:44:20;8.40;;;5.35;;
45642;SDS011;31358;46.008;11.144;2023-09-07T09:46:50;8.68;;;5.00;;
45642;SDS011;31358;46.008;11.144;2023-09-07T09:49:17;7.60;;;4.82;;
45642;SDS011;31358;46.008;11.144;2023-09-07T09:51:47;7.30;;;5.35;;
45642;SDS011;31358;46.008;11.144;2023-09-07T09:54:17;8.10;;;4.50;;
45642;SDS011;31358;46.008;11.144;2023-09-07T09:56:43;9.27;;;4.18;;
45642;SDS011;31358;46.008;11.144;2023-09-07T09:59:10;6.20;;;4.22;;
45642;SDS011;31358;46.008;11.144;2023-09-07T10:01:40;5.47;;;3.78;;
45642;SDS011;31358;46.008;11.144;2023-09-07T10:04:15;6.68;;;4.20;;
45642;SDS011;31358;46.008;11.144;2023-09-07T10:06:55;10.85;;;4.63;;
45642;SDS011;31358;46.008;11.144;2023-09-07T10:09:23;7.30;;;4.28;;
45642;SDS011;31358;46.008;11.144;2023-09-07T10:11:52;8.70;;;4.85;;
45642;SDS011;31358;46.008;11.144;2023-09-07T10:14:18;5.40;;;3.80;;
45642;SDS011;31358;46.008;11.144;2023-09-07T10:16:45;7.63;;;4.85;;
45642;SDS011;31358;46.008;11.144;2023-09-07T10:19:16;5.68;;;3.97;;
45642;SDS011;31358;46.008;11.144;2023-09-07T10:21:50;7.60;;;4.57;;
45642;SDS011;31358;46.008;11.144;2023-09-07T10:24:28;5.78;;;4.07;;
45642;SDS011;31358;46.008;11.144;2023-09-07T10:27:07;7.10;;;4.55;;
45642;SDS011;31358;46.008;11.144;2023-09-07T10:29:43;7.72;;;4.65;;
45642;SDS011;31358;46.008;11.144;2023-09-07T10:32:10;8.57;;;4.43;;
45642;SDS011;31358;46.008;11.144;2023-09-07T10:34:39;9.85;;;4.85;;
45642;SDS011;31358;46.008;11.144;2023-09-07T10:37:09;6.78;;;3.83;;
45642;SDS011;31358;46.008;11.144;2023-09-07T10:39:37;6.00;;;4.00;;
45642;SDS011;31358;46.008;11.144;2023-09-07T10:42:04;5.97;;;3.95;;
45642;SDS011;31358;46.008;11.144;2023-09-07T10:44:30;17.55;;;4.25;;
45642;SDS011;31358;46.008;11.144;2023-09-07T10:46:56;7.97;;;4.20;;
45642;SDS011;31358;46.008;11.144;2023-09-07T10:49:23;8.45;;;3.72;;
45642;SDS011;31358;46.008;11.144;2023-09-07T10:51:49;5.78;;;4.03;;
45642;SDS011;31358;46.008;11.144;2023-09-07T10:54:15;5.30;;;3.70;;
45642;SDS011;31358;46.008;11.144;2023-09-07T10:56:48;5.37;;;3.83;;
45642;SDS011;31358;46.008;11.144;2023-09-07T10:59:14;6.75;;;4.47;;
45642;SDS011;31358;46.008;11.144;2023-09-07T11:01:43;7.40;;;3.45;;
45642;SDS011;31358;46.008;11.144;2023-09-07T11:04:09;5.55;;;3.67;;
45642;SDS011;31358;46.008;11.144;2023-09-07T11:06:38;6.10;;;3.53;;
45642;SDS011;31358;46.008;11.144;2023-09-07T11:09:05;6.85;;;4.05;;
45642;SDS011;31358;46.008;11.144;2023-09-07T11:11:34;10.93;;;4.15;;
45642;SDS011;31358;46.008;11.144;2023-09-07T11:14:01;5.68;;;3.67;;
45642;SDS011;31358;46.008;11.144;2023-09-07T11:16:29;7.25;;;3.80;;
45642;SDS011;31358;46.008;11.144;2023-09-07T11:18:55;7.65;;;4.40;;
45642;SDS011;31358;46.008;11.144;2023-09-07T11:21:20;6.72;;;4.00;;
45642;SDS011;31358;46.008;11.144;2023-09-07T11:23:47;5.82;;;4.03;;
45642;SDS011;31358;46.008;11.144;2023-09-07T11:26:14;5.68;;;3.60;;
45642;SDS011;31358;46.008;11.144;2023-09-07T11:28:42;9.88;;;3.63;;
45642;SDS011;31358;46.008;11.144;2023-09-07T11:31:10;4.80;;;3.42;;
45642;SDS011;31358;46.008;11.144;2023-09-07T11:33:36;7.85;;;4.05;;
45642;SDS011;31358;46.008;11.144;2023-09-07T11:36:02;7.57;;;4.13;;
45642;SDS011;31358;46.008;11.144;2023-09-07T11:38:29;7.50;;;3.80;;
45642;SDS011;31358;46.008;11.144;2023-09-07T11:41:01;8.33;;;3.73;;
45642;SDS011;31358;46.008;11.144;2023-09-07T11:43:27;6.93;;;3.78;;
45642;SDS011;31358;46.008;11.144;2023-09-07T11:45:52;4.90;;;3.30;;
45642;SDS011;31358;46.008;11.144;2023-09-07T11:48:18;7.68;;;3.92;;
45642;SDS011;31358;46.008;11.144;2023-09-07T11:50:44;5.68;;;3.13;;
45642;SDS011;31358;46.008;11.144;2023-09-07T11:53:09;5.45;;;3.15;;
45642;SDS011;31358;46.008;11.144;2023-09-07T11:55:35;4.93;;;3.47;;
45642;SDS011;31358;46.008;11.144;2023-09-07T11:58:02;6.65;;;3.35;;
45642;SDS011;31358;46.008;11.144;2023-09-07T12:00:29;4.05;;;2.65;;
45642;SDS011;31358;46.008;11.144;2023-09-07T12:02:56;5.97;;;2.83;;
45642;SDS011;31358;46.008;11.144;2023-09-07T12:05:22;5.30;;;2.45;;
45642;SDS011;31358;46.008;11.144;2023-09-07T12:07:48;4.82;;;2.92;;
45642;SDS011;31358;46.008;11.144;2023-09-07T12:10:14;14.68;;;2.97;;
45642;SDS011;31358;46.008;11.144;2023-09-07T12:12:40;5.63;;;2.75;;
45642;SDS011;31358;46.008;11.144;2023-09-07T12:15:06;9.93;;;3.45;;
45642;SDS011;31358;46.008;11.144;2023-09-07T12:17:32;3.53;;;1.95;;
45642;SDS011;31358;46.008;11.144;2023-09-07T12:19:58;6.30;;;2.67;;
45642;SDS011;31358;46.008;11.144;2023-09-07T12:22:25;6.90;;;2.60;;
45642;SDS011;31358;46.008;11.144;2023-09-07T12:24:51;4.22;;;2.67;;
45642;SDS011;31358;46.008;11.144;2023-09-07T12:27:17;5.50;;;2.38;;
45642;SDS011;31358;46.008;11.144;2023-09-07T12:29:43;4.18;;;2.45;;
45642;SDS011;31358;46.008;11.144;2023-09-07T12:32:09;4.68;;;2.40;;
45642;SDS011;31358;46.008;11.144;2023-09-07T12:34:35;5.78;;;2.10;;
45642;SDS011;31358;46.008;11.144;2023-09-07T12:37:01;5.10;;;2.53;;
45642;SDS011;31358;46.008;11.144;2023-09-07T12:39:29;5.85;;;2.58;;
45642;SDS011;31358;46.008;11.144;2023-09-07T12:41:55;7.15;;;3.05;;
45642;SDS011;31358;46.008;11.144;2023-09-07T12:44:21;6.18;;;2.17;;
45642;SDS011;31358;46.008;11.144;2023-09-07T12:46:46;3.80;;;2.45;;
45642;SDS011;31358;46.008;11.144;2023-09-07T12:49:12;4.85;;;2.10;;
45642;SDS011;31358;46.008;11.144;2023-09-07T12:51:40;4.22;;;2.20;;
45642;SDS011;31358;46.008;11.144;2023-09-07T12:54:06;7.05;;;2.42;;
45642;SDS011;31358;46.008;11.144;2023-09-07T12:56:32;5.07;;;2.63;;
45642;SDS011;31358;46.008;11.144;2023-09-07T12:58:58;6.82;;;2.88;;
45642;SDS011;31358;46.008;11.144;2023-09-07T13:01:25;5.70;;;2.53;;
45642;SDS011;31358;46.008;11.144;2023-09-07T13:03:51;4.63;;;2.55;;
45642;SDS011;31358;46.008;11.144;2023-09-07T13:06:16;5.63;;;3.15;;
45642;SDS011;31358;46.008;11.144;2023-09-07T13:08:43;4.45;;;2.65;;
45642;SDS011;31358;46.008;11.144;2023-09-07T13:11:10;10.00;;;2.58;;
45642;SDS011;31358;46.008;11.144;2023-09-07T13:13:36;4.10;;;2.47;;
45642;SDS011;31358;46.008;11.144;2023-09-07T13:16:01;8.18;;;3.00;;
45642;SDS011;31358;46.008;11.144;2023-09-07T13:18:27;5.10;;;2.80;;
45642;SDS011;31358;46.008;11.144;2023-09-07T13:20:53;5.60;;;2.63;;
45642;SDS011;31358;46.008;11.144;2023-09-07T13:23:24;4.78;;;2.88;;
45642;SDS011;31358;46.008;11.144;2023-09-07T13:25:50;4.85;;;2.25;;
45642;SDS011;31358;46.008;11.144;2023-09-07T13:28:16;5.97;;;2.35;;
45642;SDS011;31358;46.008;11.144;2023-09-07T13:30:42;4.82;;;2.83;;
45642;SDS011;31358;46.008;11.144;2023-09-07T13:33:08;6.65;;;2.88;;
45642;SDS011;31358;46.008;11.144;2023-09-07T13:35:33;6.25;;;3.00;;
45642;SDS011;31358;46.008;11.144;2023-09-07T13:37:59;5.35;;;2.53;;
45642;SDS011;31358;46.008;11.144;2023-09-07T13:40:25;6.50;;;3.33;;
45642;SDS011;31358;46.008;11.144;2023-09-07T13:42:54;5.50;;;2.35;;
45642;SDS011;31358;46.008;11.144;2023-09-07T13:45:20;4.63;;;2.55;;
45642;SDS011;31358;46.008;11.144;2023-09-07T13:47:46;6.82;;;2.63;;
45642;SDS011;31358;46.008;11.144;2023-09-07T13:50:11;5.85;;;3.00;;
45642;SDS011;31358;46.008;11.144;2023-09-07T13:52:37;4.88;;;2.72;;
45642;SDS011;31358;46.008;11.144;2023-09-07T13:55:04;5.03;;;2.45;;
45642;SDS011;31358;46.008;11.144;2023-09-07T13:57:30;6.25;;;2.60;;
45642;SDS011;31358;46.008;11.144;2023-09-07T13:59:56;5.03;;;2.55;;
45642;SDS011;31358;46.008;11.144;2023-09-07T14:02:21;7.75;;;2.72;;
45642;SDS011;31358;46.008;11.144;2023-09-07T14:04:48;4.68;;;2.60;;
45642;SDS011;31358;46.008;11.144;2023-09-07T14:07:14;7.38;;;2.78;;
45642;SDS011;31358;46.008;11.144;2023-09-07T14:09:40;4.90;;;2.45;;
45642;SDS011;31358;46.008;11.144;2023-09-07T14:12:06;4.07;;;2.00;;
45642;SDS011;31358;46.008;11.144;2023-09-07T14:14:32;6.32;;;3.05;;
45642;SDS011;31358;46.008;11.144;2023-09-07T14:16:57;5.78;;;2.53;;
45642;SDS011;31358;46.008;11.144;2023-09-07T14:19:25;5.65;;;2.70;;
45642;SDS011;31358;46.008;11.144;2023-09-07T14:21:55;3.90;;;2.25;;
45642;SDS011;31358;46.008;11.144;2023-09-07T14:24:21;5.20;;;2.78;;
45642;SDS011;31358;46.008;11.144;2023-09-07T14:26:47;5.25;;;2.13;;
45642;SDS011;31358;46.008;11.144;2023-09-07T14:29:13;5.13;;;2.45;;